KJAN Airport (Jackson-Medgar Wiley Evers Intl) Information

FAA: JAN - ICAO: KJAN

KJAN Airport Location

State Mississippi
County Rankin
City Jackson
KJAN Airport is 5 miles east of Jackson, MS.
Latitude 32-18-40.2000N
Longitude 090-04-33.2000W
Elevation 346ft

KJAN Airport METARs

METAR KJAN 251754Z 28009KT 10SM FEW026 BKN034 27/19 A2992 RMK AO2 SLP127 60002 T02720189 10283 20206 58010 $
Altimeter 29.92"
Temperature 27.2°C (81.0°F)
Wind 280° at 9KT
Clouds few at 2,600ft broken at 3,400ft
Visibility 10.0mi
Time observed: 2021-10-25T17:54:00Z

KJAN Airport Details

Status Operational
Activation July 1963
Ownership Public
Usage Public
Chart MEMPHIS
ATC on-site Yes
Beacon schedule sunset-sunrise
Beacon color clear green

KJAN Airport Contacts

Owner CITY OF JACKSON
Owner address P.O. BOX 98109, JACKSON, MS 39298-8109
Owner phone 601-939-5631
Manager HANK DRAKE
Manager address 302 COFFEE ST., PO BOX 186, PORT GIBSON, MS 39150-2312
Manager phone 601-437-8846

KJAN Airport (Jackson-Medgar Wiley Evers Intl) Radio Frequencies

KJAN (Airport) Radio Frequencies

UNICOM 122.95
Common traffic advisory frequency (CTAF) 120.9